Time;durP1;ratioP1;P1;durP2;ratioP2;P2;SDS_P1;SDS_P2;PMS_P1;PMS_P2;Temp;Humidity;BMP_temperature;BMP_pressure;BME280_temperature;BME280_humidity;BME280_pressure;Samples;Min_cycle;Max_cycle;Signal;HPM_P1;HPM_P2
2021/08/04 00:01:33;;;;;;;1.75;1.50;;;15.10;90.40;;;;;;4960119;28;20039;-76
2021/08/04 00:03:59;;;;;;;3.08;2.35;;;15.10;90.50;;;;;;4960894;28;20587;-74
2021/08/04 00:06:24;;;;;;;2.83;1.80;;;15.20;90.40;;;;;;4955765;28;20042;-75
2021/08/04 00:08:50;;;;;;;6.93;2.10;;;15.10;90.50;;;;;;4960638;28;20038;-75
2021/08/04 00:11:16;;;;;;;2.88;1.90;;;15.10;90.30;;;;;;4960787;28;20060;-75
2021/08/04 00:13:41;;;;;;;2.97;1.77;;;15.20;90.50;;;;;;4965454;28;20034;-76
2021/08/04 00:16:07;;;;;;;2.53;1.77;;;15.10;90.50;;;;;;4961022;28;20564;-75
2021/08/04 00:18:33;;;;;;;3.42;1.98;;;15.10;90.50;;;;;;4962752;28;20395;-74
2021/08/04 00:20:58;;;;;;;5.53;1.75;;;15.10;90.50;;;;;;4968282;28;20491;-74
2021/08/04 00:23:24;;;;;;;2.08;1.88;;;15.10;90.60;;;;;;4965083;28;20045;-74
2021/08/04 00:25:49;;;;;;;5.88;2.15;;;15.10;90.80;;;;;;4959272;28;20042;-74
2021/08/04 00:28:15;;;;;;;4.45;2.75;;;15.10;90.70;;;;;;4957514;28;20031;-75
2021/08/04 00:30:41;;;;;;;4.03;2.20;;;15.10;90.80;;;;;;4974796;28;20047;-75
2021/08/04 00:33:06;;;;;;;4.95;2.00;;;15.10;90.70;;;;;;4955876;28;21235;-75
2021/08/04 00:35:32;;;;;;;5.55;2.28;;;15.10;90.90;;;;;;4957242;28;20027;-76
2021/08/04 00:37:58;;;;;;;2.35;1.92;;;15.10;90.90;;;;;;4958731;28;20076;-75
2021/08/04 00:40:24;;;;;;;2.17;1.98;;;15.10;90.90;;;;;;4961534;28;20034;-74
2021/08/04 00:42:50;;;;;;;2.42;1.90;;;15.00;90.90;;;;;;4952314;28;20448;-75
2021/08/04 00:45:15;;;;;;;2.25;1.98;;;15.00;91.00;;;;;;4962079;28;20149;-75
2021/08/04 00:47:42;;;;;;;5.20;1.80;;;15.00;91.20;;;;;;4958874;28;20028;-77
2021/08/04 00:50:08;;;;;;;3.00;1.90;;;15.00;91.20;;;;;;4956369;28;20424;-75
2021/08/04 00:52:35;;;;;;;2.80;2.00;;;15.00;91.00;;;;;;4967117;28;20028;-75
2021/08/04 00:55:01;;;;;;;3.08;2.10;;;15.00;91.10;;;;;;4955525;28;20393;-76
2021/08/04 00:57:26;;;;;;;2.70;2.20;;;15.00;91.10;;;;;;4958512;28;20031;-76
2021/08/04 00:59:52;;;;;;;2.58;1.80;;;15.00;91.30;;;;;;4956446;28;20062;-75
2021/08/04 01:02:38;;;;;;;3.20;2.30;;;14.90;91.60;;;;;;4955296;28;20098;-75
2021/08/04 01:05:14;;;;;;;2.45;2.17;;;14.90;91.60;;;;;;4954010;28;20038;-76
2021/08/04 01:07:39;;;;;;;3.22;2.13;;;15.00;91.50;;;;;;4974799;28;20062;-76
2021/08/04 01:10:31;;;;;;;3.60;2.10;;;15.00;91.50;;;;;;4955672;28;20081;-76
2021/08/04 01:13:13;;;;;;;3.15;2.22;;;15.00;91.40;;;;;;4956255;28;20038;-75
2021/08/04 01:15:48;;;;;;;3.50;2.10;;;14.90;91.80;;;;;;4959080;28;20094;-75
2021/08/04 01:18:22;;;;;;;3.53;2.08;;;14.90;91.60;;;;;;4948020;28;20053;-75
2021/08/04 01:20:48;;;;;;;2.88;2.33;;;14.90;91.50;;;;;;4950611;28;20195;-75
2021/08/04 01:23:46;;;;;;;3.63;2.28;;;14.90;91.50;;;;;;4960591;28;20100;-76
2021/08/04 01:26:25;;;;;;;3.20;2.35;;;14.90;91.50;;;;;;4954712;28;20042;-76
2021/08/04 01:28:53;;;;;;;3.90;2.30;;;14.90;91.50;;;;;;4959759;28;20394;-75
2021/08/04 01:31:25;;;;;;;2.55;1.80;;;14.90;91.40;;;;;;4948990;28;20046;-76
2021/08/04 01:33:52;;;;;;;3.65;2.13;;;14.90;91.50;;;;;;4971565;28;20026;-76
2021/08/04 01:36:19;;;;;;;2.70;1.88;;;14.90;91.40;;;;;;4954381;28;20037;-76
2021/08/04 01:38:45;;;;;;;3.42;2.08;;;14.90;91.20;;;;;;4971971;28;20165;-75
2021/08/04 01:41:15;;;;;;;7.25;2.53;;;14.90;91.10;;;;;;4969049;28;20038;-75
2021/08/04 01:43:42;;;;;;;2.63;2.05;;;14.90;91.00;;;;;;4954385;28;20023;-76
2021/08/04 01:46:09;;;;;;;2.20;1.90;;;14.90;91.00;;;;;;4945452;28;20031;-75
2021/08/04 01:48:39;;;;;;;2.53;1.90;;;14.90;91.00;;;;;;4960855;28;20027;-74
2021/08/04 01:51:08;;;;;;;3.67;2.20;;;14.90;90.80;;;;;;4959148;28;20058;-76
2021/08/04 01:53:34;;;;;;;4.35;1.90;;;15.00;90.90;;;;;;4962572;28;20474;-75
2021/08/04 01:56:00;;;;;;;3.13;2.20;;;15.00;90.90;;;;;;4955681;28;20031;-74
2021/08/04 01:58:26;;;;;;;2.75;1.88;;;15.00;90.90;;;;;;4954020;28;20057;-76
2021/08/04 02:00:51;;;;;;;3.83;1.98;;;14.90;90.80;;;;;;4947695;28;20051;-75
2021/08/04 02:03:17;;;;;;;2.42;2.10;;;14.90;91.10;;;;;;4958707;28;20082;-75
2021/08/04 02:05:45;;;;;;;2.72;2.22;;;14.90;91.20;;;;;;4957480;28;20069;-75
2021/08/04 02:08:19;;;;;;;3.47;1.88;;;14.90;91.00;;;;;;4978827;28;20530;-75
2021/08/04 02:10:56;;;;;;;2.47;1.70;;;14.90;90.80;;;;;;4950530;28;20031;-76
2021/08/04 02:13:29;;;;;;;2.95;2.17;;;14.90;90.90;;;;;;4959145;28;20070;-76
2021/08/04 02:16:06;;;;;;;2.95;2.40;;;14.90;90.90;;;;;;4957591;28;20086;-75
2021/08/04 02:18:34;;;;;;;3.80;2.00;;;14.90;90.80;;;;;;4954659;28;20023;-74
2021/08/04 02:21:01;;;;;;;2.70;2.20;;;14.90;90.80;;;;;;4961567;28;20086;-75
2021/08/04 02:23:33;;;;;;;2.78;1.98;;;14.90;90.80;;;;;;4963359;28;20038;-76
2021/08/04 02:26:08;;;;;;;3.50;2.10;;;14.90;90.90;;;;;;4951952;28;20029;-77
2021/08/04 02:28:36;;;;;;;2.17;1.88;;;14.80;90.80;;;;;;4968525;28;20065;-76
2021/08/04 02:31:05;;;;;;;2.38;1.90;;;14.90;90.80;;;;;;4953341;28;20035;-75
2021/08/04 02:33:31;;;;;;;2.75;1.98;;;14.90;90.70;;;;;;4964760;28;20114;-76
2021/08/04 02:35:57;;;;;;;2.83;2.08;;;14.90;90.80;;;;;;4955649;28;20529;-75
2021/08/04 02:38:23;;;;;;;2.08;1.70;;;14.90;90.70;;;;;;4955582;28;20022;-74
2021/08/04 02:40:50;;;;;;;5.05;2.00;;;14.80;90.80;;;;;;4958011;28;21527;-75
2021/08/04 02:43:16;;;;;;;3.05;1.98;;;14.90;90.80;;;;;;4964682;28;20037;-75
2021/08/04 02:45:44;;;;;;;2.85;2.00;;;14.80;90.70;;;;;;4958106;28;20085;-76
2021/08/04 02:48:11;;;;;;;3.08;1.88;;;14.80;90.70;;;;;;4955878;28;20134;-75
2021/08/04 02:50:42;;;;;;;2.65;1.83;;;14.80;90.70;;;;;;4958625;28;20113;-74
2021/08/04 02:53:08;;;;;;;3.15;1.90;;;14.80;90.80;;;;;;4958435;28;20026;-75
2021/08/04 02:55:33;;;;;;;2.22;2.03;;;14.80;90.80;;;;;;4961536;28;20684;-76
2021/08/04 02:57:59;;;;;;;2.50;2.10;;;14.80;90.80;;;;;;4954630;28;20035;-74
2021/08/04 03:00:25;;;;;;;5.00;1.90;;;14.70;90.80;;;;;;4949729;28;20027;-76
2021/08/04 03:02:51;;;;;;;2.67;2.13;;;14.70;90.90;;;;;;4955235;28;20502;-76
2021/08/04 03:05:16;;;;;;;2.47;2.08;;;14.70;90.90;;;;;;4951659;28;20027;-75
2021/08/04 03:07:42;;;;;;;2.85;2.00;;;14.60;91.10;;;;;;4970004;28;20122;-76
2021/08/04 03:10:08;;;;;;;2.88;1.85;;;14.60;91.10;;;;;;4978058;28;20027;-75
2021/08/04 03:12:34;;;;;;;3.83;1.95;;;14.70;90.90;;;;;;4963989;28;20060;-76
2021/08/04 03:15:00;;;;;;;2.22;2.00;;;14.60;91.00;;;;;;4949428;28;20111;-75
2021/08/04 03:17:25;;;;;;;2.85;1.80;;;14.60;90.90;;;;;;4957054;28;20497;-75
2021/08/04 03:19:51;;;;;;;3.88;2.28;;;14.70;90.90;;;;;;4967933;28;20035;-77
2021/08/04 03:22:17;;;;;;;3.33;2.03;;;14.70;90.80;;;;;;4952895;28;20374;-74
2021/08/04 03:24:44;;;;;;;2.78;2.20;;;14.60;90.90;;;;;;4958044;28;20461;-75
2021/08/04 03:27:09;;;;;;;3.63;1.90;;;14.60;90.90;;;;;;4952270;28;20085;-75
2021/08/04 03:29:35;;;;;;;3.00;2.00;;;14.60;91.00;;;;;;4950281;28;20039;-75
2021/08/04 03:32:04;;;;;;;2.70;2.10;;;14.60;90.90;;;;;;4954091;28;20429;-76
2021/08/04 03:34:30;;;;;;;2.83;2.10;;;14.60;90.90;;;;;;4956045;28;20022;-76
2021/08/04 03:36:56;;;;;;;2.40;2.20;;;14.60;90.90;;;;;;4953822;28;20037;-76
2021/08/04 03:39:22;;;;;;;2.20;1.95;;;14.60;91.20;;;;;;4957737;28;20098;-75
2021/08/04 03:41:47;;;;;;;2.78;2.20;;;14.60;90.90;;;;;;4961693;28;20489;-75
2021/08/04 03:44:13;;;;;;;2.15;1.92;;;14.60;90.90;;;;;;4951603;28;20114;-76
2021/08/04 03:46:39;;;;;;;3.30;2.35;;;14.60;90.90;;;;;;4964205;28;20045;-75
2021/08/04 03:49:05;;;;;;;2.70;2.22;;;14.50;90.90;;;;;;4954954;28;20054;-75
2021/08/04 03:51:31;;;;;;;2.80;2.15;;;14.50;91.10;;;;;;4962497;28;20022;-76
2021/08/04 03:53:56;;;;;;;2.55;2.00;;;14.50;90.90;;;;;;4957488;28;20038;-76
2021/08/04 03:56:22;;;;;;;2.70;1.98;;;14.50;90.80;;;;;;4956671;28;20409;-75
2021/08/04 03:58:48;;;;;;;3.67;2.17;;;14.50;91.10;;;;;;4957088;28;20043;-76
2021/08/04 04:01:14;;;;;;;2.33;1.95;;;14.50;91.30;;;;;;4946761;28;20118;-75
2021/08/04 04:03:39;;;;;;;2.97;1.70;;;14.50;91.10;;;;;;4956715;28;20585;-75
2021/08/04 04:06:05;;;;;;;2.75;2.00;;;14.50;90.90;;;;;;4952820;28;20042;-74
2021/08/04 04:08:31;;;;;;;2.00;1.60;;;14.50;90.90;;;;;;4955140;28;20493;-75
2021/08/04 04:10:57;;;;;;;4.80;2.45;;;14.50;90.90;;;;;;4960139;28;20031;-74
2021/08/04 04:13:23;;;;;;;2.25;1.83;;;14.50;90.90;;;;;;4963914;28;20850;-75
2021/08/04 04:15:49;;;;;;;2.47;1.88;;;14.50;90.80;;;;;;4955430;28;20038;-75
2021/08/04 04:18:14;;;;;;;2.80;1.83;;;14.50;90.90;;;;;;4956621;28;20046;-75
2021/08/04 04:20:40;;;;;;;4.90;2.10;;;14.50;90.80;;;;;;4953600;28;20050;-76
2021/08/04 04:23:06;;;;;;;3.10;2.00;;;14.50;90.80;;;;;;4959762;28;20054;-74
2021/08/04 04:25:31;;;;;;;3.55;1.90;;;14.50;90.70;;;;;;4973551;28;20045;-73
2021/08/04 04:27:57;;;;;;;3.55;1.83;;;14.50;90.60;;;;;;4964011;28;20031;-76
2021/08/04 04:30:23;;;;;;;2.90;1.90;;;14.50;90.60;;;;;;4955672;28;20118;-76
2021/08/04 04:32:48;;;;;;;2.55;1.80;;;14.50;90.70;;;;;;4956330;28;20584;-75
2021/08/04 04:35:14;;;;;;;2.33;2.13;;;14.50;90.80;;;;;;4964162;28;20031;-75
2021/08/04 04:37:40;;;;;;;3.13;2.20;;;14.50;90.70;;;;;;4960652;28;20031;-75
2021/08/04 04:40:06;;;;;;;2.55;1.80;;;14.50;90.70;;;;;;4961111;28;20030;-75
2021/08/04 04:42:32;;;;;;;3.55;1.70;;;14.50;90.90;;;;;;4963478;28;21288;-75
2021/08/04 04:44:58;;;;;;;3.03;2.03;;;14.40;90.80;;;;;;4983321;28;20029;-75
2021/08/04 04:47:23;;;;;;;2.75;2.08;;;14.50;90.80;;;;;;4955546;28;20058;-76
2021/08/04 04:49:49;;;;;;;2.30;1.67;;;14.40;90.80;;;;;;4964165;28;20042;-76
2021/08/04 04:52:15;;;;;;;3.50;2.20;;;14.40;90.90;;;;;;4974558;28;20065;-76
2021/08/04 04:54:41;;;;;;;3.80;2.17;;;14.40;91.00;;;;;;4969915;28;20175;-75
2021/08/04 04:57:06;;;;;;;5.13;2.67;;;14.40;91.00;;;;;;4971419;28;20504;-76
2021/08/04 04:59:32;;;;;;;4.25;2.40;;;14.40;90.80;;;;;;4974937;28;20041;-75
2021/08/04 05:01:58;;;;;;;3.70;2.40;;;14.50;90.90;;;;;;4972030;28;20043;-75
2021/08/04 05:04:24;;;;;;;5.65;2.85;;;14.50;90.90;;;;;;4970167;28;20048;-75
2021/08/04 05:06:49;;;;;;;3.92;2.40;;;14.50;90.90;;;;;;4962091;28;20088;-76
2021/08/04 05:09:15;;;;;;;4.85;3.00;;;14.50;90.90;;;;;;4954551;28;20026;-76
2021/08/04 05:11:40;;;;;;;6.28;3.20;;;14.50;91.00;;;;;;4964991;28;20717;-76
2021/08/04 05:14:06;;;;;;;5.72;3.03;;;14.50;90.90;;;;;;4962697;28;20030;-76
2021/08/04 05:16:32;;;;;;;5.40;3.17;;;14.60;90.80;;;;;;4961765;28;21127;-75
2021/08/04 05:18:57;;;;;;;6.38;2.88;;;14.60;90.80;;;;;;4957564;28;20023;-75
2021/08/04 05:21:23;;;;;;;4.53;2.53;;;14.60;91.00;;;;;;4956138;28;20027;-75
2021/08/04 05:23:49;;;;;;;5.93;2.90;;;14.60;90.80;;;;;;4960626;28;20038;-76
2021/08/04 05:26:14;;;;;;;5.28;3.08;;;14.60;91.00;;;;;;4953977;28;20027;-76
2021/08/04 05:28:40;;;;;;;4.22;3.10;;;14.70;91.10;;;;;;4952617;28;20042;-76
2021/08/04 05:31:06;;;;;;;5.72;3.17;;;14.70;91.00;;;;;;4958303;28;20045;-75
2021/08/04 05:33:32;;;;;;;4.22;2.53;;;14.70;91.10;;;;;;4959461;28;20031;-76
2021/08/04 05:35:58;;;;;;;3.67;2.65;;;14.70;90.80;;;;;;4959004;28;20047;-76
2021/08/04 05:38:24;;;;;;;3.80;2.40;;;14.70;90.80;;;;;;4947777;28;20041;-75
2021/08/04 05:40:50;;;;;;;2.88;1.98;;;14.70;90.60;;;;;;4966784;28;20031;-76
2021/08/04 05:43:15;;;;;;;2.80;1.88;;;14.70;90.40;;;;;;4955279;28;20038;-76
2021/08/04 05:45:41;;;;;;;3.13;2.08;;;14.80;90.40;;;;;;4956743;28;20034;-76
2021/08/04 05:48:07;;;;;;;2.40;1.95;;;14.80;90.50;;;;;;4965739;28;20058;-76
2021/08/04 05:50:33;;;;;;;3.38;1.98;;;14.80;90.40;;;;;;4957970;28;22291;-75
2021/08/04 05:52:59;;;;;;;5.00;2.00;;;14.80;90.30;;;;;;4964517;28;20121;-76
2021/08/04 05:55:25;;;;;;;4.47;1.80;;;14.80;90.40;;;;;;4958103;28;20197;-75
2021/08/04 05:57:51;;;;;;;1.55;1.45;;;14.80;90.30;;;;;;4954793;28;20027;-75
2021/08/04 06:00:16;;;;;;;2.70;1.85;;;14.90;90.50;;;;;;4965047;28;20042;-75
2021/08/04 06:02:42;;;;;;;1.83;1.50;;;14.90;90.10;;;;;;4954045;28;20050;-76
2021/08/04 06:05:08;;;;;;;3.45;1.73;;;15.00;90.10;;;;;;4950544;28;20061;-75
2021/08/04 06:07:34;;;;;;;1.52;1.42;;;15.00;90.40;;;;;;4957427;28;20461;-76
2021/08/04 06:10:00;;;;;;;2.15;1.70;;;15.00;89.70;;;;;;4963168;28;20034;-76
2021/08/04 06:12:25;;;;;;;3.03;1.88;;;15.00;90.10;;;;;;4958947;28;20532;-76
2021/08/04 06:14:51;;;;;;;2.08;1.50;;;15.10;90.30;;;;;;4967390;28;20094;-77
2021/08/04 06:17:17;;;;;;;1.63;1.50;;;15.00;89.80;;;;;;4971005;28;20074;-76
2021/08/04 06:19:43;;;;;;;1.85;1.40;;;15.10;90.00;;;;;;4953041;28;20027;-76
2021/08/04 06:22:08;;;;;;;3.40;1.70;;;15.10;89.70;;;;;;4957392;28;20031;-77
2021/08/04 06:24:34;;;;;;;2.63;1.65;;;15.10;90.00;;;;;;4958907;28;20023;-77
2021/08/04 06:27:00;;;;;;;1.90;1.70;;;15.20;89.30;;;;;;4960952;28;20528;-76
2021/08/04 06:29:26;;;;;;;2.22;1.77;;;15.20;89.30;;;;;;4959516;28;20034;-76
2021/08/04 06:31:52;;;;;;;2.13;1.75;;;15.20;88.70;;;;;;4952693;28;20027;-75
2021/08/04 06:34:17;;;;;;;2.10;1.80;;;15.20;88.40;;;;;;4973400;28;20069;-75
2021/08/04 06:36:43;;;;;;;2.17;1.80;;;15.20;89.00;;;;;;4956332;28;20027;-75
2021/08/04 06:39:09;;;;;;;2.15;1.70;;;15.20;88.80;;;;;;4959910;28;20067;-77
2021/08/04 06:41:35;;;;;;;3.00;1.88;;;15.30;88.00;;;;;;4957767;28;20519;-75
2021/08/04 06:44:01;;;;;;;3.38;1.63;;;15.30;88.50;;;;;;4960694;28;20035;-76
2021/08/04 06:46:33;;;;;;;2.53;1.60;;;15.30;88.90;;;;;;4973731;28;20026;-76
2021/08/04 06:48:59;;;;;;;3.08;1.50;;;15.30;88.40;;;;;;4973794;28;20035;-76
2021/08/04 06:51:25;;;;;;;1.92;1.70;;;15.30;88.20;;;;;;4958534;28;20038;-76
2021/08/04 06:53:51;;;;;;;2.50;1.95;;;15.40;88.20;;;;;;4971592;28;20054;-76
2021/08/04 06:56:17;;;;;;;2.97;2.13;;;15.40;88.00;;;;;;4954257;28;20026;-76
2021/08/04 06:58:42;;;;;;;1.73;1.45;;;15.40;88.40;;;;;;4951607;28;20497;-76
2021/08/04 07:01:08;;;;;;;2.92;1.48;;;15.40;88.00;;;;;;4953595;28;20094;-77
2021/08/04 07:03:35;;;;;;;2.55;1.50;;;15.50;88.10;;;;;;4960541;28;20031;-76
2021/08/04 07:06:01;;;;;;;3.58;1.80;;;15.50;88.70;;;;;;4952290;28;20037;-75
2021/08/04 07:08:27;;;;;;;1.52;1.35;;;15.60;88.30;;;;;;4954052;28;20027;-77
2021/08/04 07:10:53;;;;;;;2.90;1.58;;;15.60;87.80;;;;;;4961428;28;20207;-77
2021/08/04 07:13:19;;;;;;;2.80;1.77;;;15.70;87.30;;;;;;4955884;28;20031;-76
2021/08/04 07:15:45;;;;;;;1.70;1.60;;;15.70;86.70;;;;;;4959488;28;20572;-76
2021/08/04 07:18:10;;;;;;;2.25;1.60;;;15.70;86.60;;;;;;4976996;28;20402;-76
2021/08/04 07:20:38;;;;;;;2.15;1.73;;;15.70;86.50;;;;;;4957574;28;20512;-78
2021/08/04 07:23:04;;;;;;;1.75;1.30;;;15.70;84.80;;;;;;4957799;28;20389;-77
2021/08/04 07:25:30;;;;;;;4.18;2.03;;;15.80;85.20;;;;;;4956795;28;20577;-77
2021/08/04 07:27:55;;;;;;;1.55;1.40;;;15.80;85.70;;;;;;4975662;28;20026;-75
2021/08/04 07:30:21;;;;;;;1.70;1.50;;;15.80;85.80;;;;;;4949052;28;20038;-76
2021/08/04 07:32:47;;;;;;;1.42;1.33;;;15.90;85.60;;;;;;4954252;28;20023;-75
2021/08/04 07:35:12;;;;;;;2.10;1.35;;;15.90;85.80;;;;;;4958234;28;21851;-77
2021/08/04 07:37:38;;;;;;;2.05;1.45;;;16.00;85.60;;;;;;4962158;28;20031;-76
2021/08/04 07:40:07;;;;;;;1.98;1.50;;;16.00;84.60;;;;;;4959162;28;20026;-76
2021/08/04 07:42:33;;;;;;;2.53;1.52;;;16.00;85.10;;;;;;4958346;28;20050;-76
2021/08/04 07:44:59;;;;;;;2.10;1.77;;;16.10;86.00;;;;;;4951961;28;20023;-76
2021/08/04 07:47:25;;;;;;;2.20;1.50;;;16.10;84.90;;;;;;4950869;28;20041;-75
2021/08/04 07:49:51;;;;;;;2.47;1.30;;;16.10;84.80;;;;;;4959707;28;20035;-76
2021/08/04 07:52:17;;;;;;;3.95;1.85;;;16.10;83.10;;;;;;4958095;28;20034;-76
2021/08/04 07:54:43;;;;;;;3.42;1.60;;;16.10;84.30;;;;;;4967173;28;20424;-76
2021/08/04 07:57:12;;;;;;;2.00;1.50;;;16.10;83.30;;;;;;4958381;28;20034;-76
2021/08/04 07:59:37;;;;;;;1.70;1.60;;;16.10;83.70;;;;;;4963473;28;20498;-77
2021/08/04 08:02:04;;;;;;;1.63;1.33;;;16.10;84.40;;;;;;4949784;28;20045;-76
2021/08/04 08:04:33;;;;;;;3.03;1.85;;;16.10;84.40;;;;;;4961080;28;20023;-77
2021/08/04 08:07:01;;;;;;;1.55;1.35;;;16.20;84.30;;;;;;4957978;28;20104;-75
2021/08/04 08:09:26;;;;;;;1.40;1.30;;;16.30;84.30;;;;;;4962964;28;20035;-75
2021/08/04 08:11:56;;;;;;;1.92;1.73;;;16.30;82.20;;;;;;4959308;28;20493;-76
2021/08/04 08:14:22;;;;;;;2.95;1.60;;;16.30;83.20;;;;;;4958314;28;20027;-77
2021/08/04 08:16:48;;;;;;;4.10;1.60;;;16.30;81.80;;;;;;4957179;28;20031;-76
2021/08/04 08:19:14;;;;;;;1.75;1.50;;;16.30;82.80;;;;;;4955669;28;20065;-76
2021/08/04 08:21:40;;;;;;;2.55;1.55;;;16.30;83.10;;;;;;4958817;28;20039;-77
2021/08/04 08:24:06;;;;;;;1.73;1.52;;;16.40;83.50;;;;;;4968943;28;20062;-76
2021/08/04 08:26:35;;;;;;;2.58;1.88;;;16.40;84.10;;;;;;4962108;28;20293;-76
2021/08/04 08:29:00;;;;;;;;;;;16.50;83.10;;;;;;4964728;28;20027;-77
2021/08/04 08:31:26;;;;;;;2.20;1.40;;;16.50;83.00;;;;;;4961232;28;20004;-78
2021/08/04 08:33:52;;;;;;;1.85;1.30;;;16.50;81.40;;;;;;4962478;28;20053;-76
2021/08/04 08:36:18;;;;;;;2.25;1.48;;;16.50;81.50;;;;;;4961781;28;20571;-76
2021/08/04 08:38:43;;;;;;;2.78;1.33;;;16.50;80.60;;;;;;4971229;28;20081;-77
2021/08/04 08:41:09;;;;;;;3.33;1.80;;;16.60;80.60;;;;;;4966062;28;20460;-75
2021/08/04 08:43:35;;;;;;;3.22;1.60;;;16.60;80.00;;;;;;4964839;28;20041;-77
2021/08/04 08:46:06;;;;;;;2.55;2.10;;;16.60;81.00;;;;;;4981079;28;20018;-76
2021/08/04 08:48:31;;;;;;;2.30;1.60;;;16.60;80.60;;;;;;4971029;28;20647;-77
2021/08/04 08:50:57;;;;;;;1.75;1.50;;;16.80;80.50;;;;;;4965505;28;20034;-77
2021/08/04 08:53:23;;;;;;;3.72;1.77;;;16.90;80.70;;;;;;4963054;28;20062;-78
2021/08/04 08:55:49;;;;;;;2.78;1.80;;;17.00;78.70;;;;;;4962353;28;20026;-76
2021/08/04 08:58:15;;;;;;;2.08;1.40;;;17.10;79.20;;;;;;4955595;28;20549;-78
2021/08/04 09:00:41;;;;;;;1.42;1.33;;;17.00;78.00;;;;;;4953337;28;20054;-77
2021/08/04 09:03:07;;;;;;;2.78;1.40;;;17.10;79.30;;;;;;4959540;28;20027;-72
2021/08/04 09:05:53;;;;;;;2.33;1.45;;;17.10;79.20;;;;;;4959933;28;20035;-73
2021/08/04 09:08:28;;;;;;;1.98;1.50;;;17.10;78.70;;;;;;4956530;28;20033;-72
2021/08/04 09:10:56;;;;;;;2.40;1.55;;;17.20;79.40;;;;;;4956744;28;20565;-73
2021/08/04 09:13:32;;;;;;;3.00;1.60;;;17.20;77.50;;;;;;4954502;28;20034;-73
2021/08/04 09:16:10;;;;;;;1.40;1.30;;;17.20;79.10;;;;;;4958998;28;20041;-73
2021/08/04 09:18:40;;;;;;;1.33;1.23;;;17.20;76.30;;;;;;4954405;28;20525;-72
2021/08/04 09:21:06;;;;;;;2.22;1.25;;;17.10;77.50;;;;;;4953522;28;20035;-73
2021/08/04 09:23:31;;;;;;;1.63;1.50;;;17.10;76.60;;;;;;4954032;28;20034;-73
2021/08/04 09:26:06;;;;;;;2.20;1.45;;;17.10;75.20;;;;;;4961557;28;20034;-72
2021/08/04 09:28:50;;;;;;;3.35;1.20;;;17.00;77.30;;;;;;4955845;28;20027;-72
2021/08/04 09:31:16;;;;;;;1.40;1.30;;;17.10;77.50;;;;;;4951574;28;20039;-72
2021/08/04 09:33:42;;;;;;;2.40;1.30;;;17.10;76.30;;;;;;4960308;28;20061;-70
2021/08/04 09:36:12;;;;;;;1.30;1.20;;;17.10;73.80;;;;;;4977879;28;20031;-71
2021/08/04 09:38:38;;;;;;;1.40;1.30;;;17.00;73.30;;;;;;4985951;28;20041;-72
2021/08/04 09:41:15;;;;;;;3.10;1.45;;;17.00;74.10;;;;;;4986124;28;20031;-71
2021/08/04 09:43:48;;;;;;;1.52;1.42;;;17.10;77.80;;;;;;4973600;28;20031;-71
2021/08/04 09:46:27;;;;;;;2.20;1.33;;;17.10;76.30;;;;;;4963923;28;20686;-72
2021/08/04 09:48:53;;;;;;;2.03;1.45;;;17.20;75.70;;;;;;4966389;28;20027;-71
2021/08/04 09:51:20;;;;;;;1.63;1.20;;;17.20;76.60;;;;;;4969046;28;20509;-71
2021/08/04 09:54:07;;;;;;;1.42;1.27;;;17.20;77.50;;;;;;4976424;28;20545;-71
2021/08/04 09:56:32;;;;;;;2.13;1.45;;;17.30;75.10;;;;;;4963093;28;20042;-72
2021/08/04 09:59:08;;;;;;;1.38;1.20;;;17.20;73.90;;;;;;4958853;28;20077;-71
2021/08/04 10:01:41;;;;;;;1.65;1.30;;;17.30;74.60;;;;;;4961778;28;20463;-72
2021/08/04 10:04:08;;;;;;;1.55;1.30;;;17.40;75.60;;;;;;4965727;28;20030;-71
2021/08/04 10:06:39;;;;;;;2.00;1.30;;;17.50;75.10;;;;;;4979771;28;20027;-72
2021/08/04 10:09:09;;;;;;;4.10;1.50;;;17.60;74.30;;;;;;4969216;28;20112;-73
2021/08/04 10:11:38;;;;;;;1.92;1.40;;;17.60;74.40;;;;;;4970638;28;20085;-71
2021/08/04 10:14:04;;;;;;;2.30;1.40;;;17.80;75.10;;;;;;4962459;28;21608;-71
2021/08/04 10:16:35;;;;;;;2.70;1.50;;;18.00;72.30;;;;;;4956291;28;20038;-71
2021/08/04 10:19:02;;;;;;;3.22;1.73;;;18.00;76.00;;;;;;4956607;28;20110;-71
2021/08/04 10:21:27;;;;;;;1.77;1.38;;;18.20;75.10;;;;;;4955507;28;20019;-71
2021/08/04 10:23:53;;;;;;;1.77;1.48;;;18.20;73.00;;;;;;4956532;28;20556;-71
2021/08/04 10:26:21;;;;;;;2.25;1.63;;;18.30;74.60;;;;;;4957581;28;20038;-71
2021/08/04 10:28:51;;;;;;;2.27;1.60;;;18.30;73.90;;;;;;4954734;28;20035;-71
2021/08/04 10:31:18;;;;;;;2.25;1.60;;;18.30;73.30;;;;;;4955816;28;20046;-70
2021/08/04 10:33:44;;;;;;;1.52;1.42;;;18.30;74.10;;;;;;4968482;28;20042;-73
2021/08/04 10:36:18;;;;;;;3.35;1.85;;;18.30;73.90;;;;;;4978773;28;20031;-72
2021/08/04 10:38:50;;;;;;;1.77;1.35;;;18.30;74.30;;;;;;4975037;28;20152;-72
2021/08/04 10:41:22;;;;;;;2.33;1.63;;;18.30;72.50;;;;;;4961212;28;20035;-72
2021/08/04 10:43:53;;;;;;;1.77;1.60;;;18.30;73.60;;;;;;4961666;28;20035;-71
2021/08/04 10:46:30;;;;;;;3.47;1.67;;;18.30;73.60;;;;;;4961053;28;20030;-72
2021/08/04 10:49:05;;;;;;;2.10;1.50;;;18.30;73.40;;;;;;4966672;28;20026;-72
2021/08/04 10:51:36;;;;;;;1.75;1.50;;;18.30;73.30;;;;;;4979772;28;20286;-75
2021/08/04 10:54:02;;;;;;;1.83;1.67;;;18.30;74.40;;;;;;4966371;28;20039;-73
2021/08/04 10:56:34;;;;;;;1.58;1.48;;;18.30;74.00;;;;;;4965320;28;20023;-74
2021/08/04 10:59:09;;;;;;;1.77;1.42;;;18.30;74.70;;;;;;4961961;28;20026;-75
2021/08/04 11:01:49;;;;;;;2.47;1.73;;;18.30;75.20;;;;;;4961373;28;20035;-74
2021/08/04 11:04:15;;;;;;;2.88;1.70;;;18.40;75.80;;;;;;4962768;28;20450;-76
2021/08/04 11:07:09;;;;;;;1.65;1.55;;;18.30;74.70;;;;;;4953337;28;20023;-77
2021/08/04 11:09:36;;;;;;;1.98;1.50;;;18.20;71.70;;;;;;4949186;28;20113;-76
2021/08/04 11:12:23;;;;;;;4.13;1.60;;;18.20;72.80;;;;;;4970960;28;20039;-74
2021/08/04 11:15:01;;;;;;;2.23;1.60;;;18.30;73.10;;;;;;4944057;28;20116;-75
2021/08/04 11:17:32;;;;;;;2.88;1.98;;;18.30;71.50;;;;;;4972590;28;21302;-76
2021/08/04 11:20:16;;;;;;;2.67;2.03;;;18.30;74.30;;;;;;4970095;28;20086;-74
2021/08/04 11:22:43;;;;;;;4.43;1.70;;;18.30;73.70;;;;;;4969382;28;20086;-76
2021/08/04 11:25:31;;;;;;;2.58;1.50;;;18.30;72.30;;;;;;4955721;28;20623;-76
2021/08/04 11:28:02;;;;;;;3.65;2.53;;;18.30;71.80;;;;;;4971849;28;20031;-76
2021/08/04 11:30:35;;;;;;;2.83;2.00;;;18.30;73.90;;;;;;4971970;28;20038;-72
2021/08/04 11:33:25;;;;;;;2.05;1.40;;;18.30;74.00;;;;;;4971871;28;20030;-72
2021/08/04 11:36:11;;;;;;;2.10;1.75;;;18.40;73.90;;;;;;4979857;28;20031;-72
2021/08/04 11:38:53;;;;;;;2.88;1.92;;;18.40;71.50;;;;;;4956624;28;20023;-75
2021/08/04 11:41:25;;;;;;;3.35;1.90;;;18.40;72.40;;;;;;4981507;28;20031;-75
2021/08/04 11:44:00;;;;;;;9.80;8.93;;;18.40;73.00;;;;;;4965249;28;20039;-74
2021/08/04 11:46:43;;;;;;;2.88;1.58;;;18.30;74.00;;;;;;4951524;28;20027;-78
2021/08/04 11:49:19;;;;;;;4.20;1.40;;;18.30;69.90;;;;;;4959233;28;20455;-76
2021/08/04 11:51:54;;;;;;;2.78;1.60;;;18.20;73.60;;;;;;4955086;28;20050;-75
2021/08/04 11:54:33;;;;;;;1.98;1.50;;;18.30;74.60;;;;;;4977396;28;20027;-75
2021/08/04 11:56:59;;;;;;;2.40;1.40;;;18.40;70.40;;;;;;4964100;28;20031;-74
2021/08/04 11:59:26;;;;;;;2.40;1.50;;;18.30;69.70;;;;;;4966605;28;20029;-76
2021/08/04 12:01:55;;;;;;;1.60;1.30;;;18.30;71.00;;;;;;4965066;28;20042;-76
2021/08/04 12:04:21;;;;;;;2.03;1.30;;;18.30;73.20;;;;;;4983625;28;20034;-77
2021/08/04 12:06:57;;;;;;;2.78;1.60;;;18.30;71.40;;;;;;4982347;28;20065;-75
2021/08/04 12:09:28;;;;;;;2.35;1.67;;;18.50;70.10;;;;;;4972184;28;20029;-75
2021/08/04 12:11:55;;;;;;;1.70;1.48;;;18.50;71.20;;;;;;4957517;28;20035;-77
2021/08/04 12:14:21;;;;;;;2.03;1.55;;;18.60;71.10;;;;;;4963756;28;20468;-75
2021/08/04 12:16:59;;;;;;;2.50;1.50;;;18.60;72.40;;;;;;4967295;28;20034;-75
2021/08/04 12:19:46;;;;;;;1.50;1.27;;;18.70;70.00;;;;;;4972025;28;20030;-76
2021/08/04 12:22:19;;;;;;;1.65;1.55;;;18.60;70.00;;;;;;4960504;28;20043;-75
2021/08/04 12:24:49;;;;;;;2.33;1.25;;;18.70;69.60;;;;;;4973115;28;20070;-76
2021/08/04 12:27:38;;;;;;;1.85;1.30;;;18.70;70.30;;;;;;4993707;28;20022;-75
2021/08/04 12:30:20;;;;;;;1.70;1.30;;;18.70;70.10;;;;;;4973366;28;20023;-76
2021/08/04 12:33:16;;;;;;;1.83;1.15;;;18.70;70.50;;;;;;4961823;28;20055;-77
2021/08/04 12:36:01;;;;;;;1.45;1.35;;;18.80;69.90;;;;;;4958996;28;20038;-75
2021/08/04 12:38:34;;;;;;;1.52;1.27;;;18.70;69.00;;;;;;4960094;28;20027;-76
2021/08/04 12:41:01;;;;;;;2.33;1.23;;;18.70;71.10;;;;;;4957854;28;20043;-76
2021/08/04 12:43:33;;;;;;;1.48;1.38;;;18.80;71.10;;;;;;4977930;28;20093;-78
2021/08/04 12:46:00;;;;;;;1.73;1.30;;;18.80;70.10;;;;;;4966904;28;20113;-76
2021/08/04 12:48:41;;;;;;;1.85;1.48;;;18.90;69.50;;;;;;4959096;28;20110;-76
2021/08/04 12:51:25;;;;;;;1.50;1.40;;;18.90;70.10;;;;;;4965066;28;20126;-75
2021/08/04 12:53:55;;;;;;;1.63;1.40;;;18.80;70.30;;;;;;4975662;28;20058;-75
2021/08/04 12:56:36;;;;;;;3.78;1.42;;;18.90;69.70;;;;;;4959546;28;20031;-75